sensor_id;sensor_type;location;lat;lon;timestamp;P1;durP1;ratioP1;P2;durP2;ratioP2
15643;SDS011;7921;43.586;1.408;2022-09-09T00:01:54;2.97;;;1.70;;
15643;SDS011;7921;43.586;1.408;2022-09-09T00:04:33;3.28;;;1.77;;
15643;SDS011;7921;43.586;1.408;2022-09-09T00:07:03;2.75;;;1.70;;
15643;SDS011;7921;43.586;1.408;2022-09-09T00:14:51;1.65;;;1.50;;
15643;SDS011;7921;43.586;1.408;2022-09-09T00:22:27;2.42;;;1.50;;
15643;SDS011;7921;43.586;1.408;2022-09-09T00:24:57;3.22;;;1.75;;
15643;SDS011;7921;43.586;1.408;2022-09-09T00:27:40;4.18;;;1.70;;
15643;SDS011;7921;43.586;1.408;2022-09-09T00:30:16;2.75;;;1.70;;
15643;SDS011;7921;43.586;1.408;2022-09-09T00:32:44;2.53;;;1.80;;
15643;SDS011;7921;43.586;1.408;2022-09-09T00:35:29;3.40;;;1.60;;
15643;SDS011;7921;43.586;1.408;2022-09-09T00:37:58;1.90;;;1.50;;
15643;SDS011;7921;43.586;1.408;2022-09-09T00:40:45;3.88;;;1.58;;
15643;SDS011;7921;43.586;1.408;2022-09-09T00:43:31;3.22;;;1.33;;
15643;SDS011;7921;43.586;1.408;2022-09-09T00:48:47;4.00;;;1.70;;
15643;SDS011;7921;43.586;1.408;2022-09-09T01:02:49;2.97;;;1.40;;
15643;SDS011;7921;43.586;1.408;2022-09-09T01:08:15;2.63;;;1.35;;
15643;SDS011;7921;43.586;1.408;2022-09-09T01:10:50;2.30;;;1.50;;
15643;SDS011;7921;43.586;1.408;2022-09-09T01:13:24;3.33;;;1.58;;
15643;SDS011;7921;43.586;1.408;2022-09-09T01:15:52;1.95;;;1.42;;
15643;SDS011;7921;43.586;1.408;2022-09-09T01:18:19;1.73;;;1.30;;
15643;SDS011;7921;43.586;1.408;2022-09-09T01:20:49;2.85;;;1.30;;
15643;SDS011;7921;43.586;1.408;2022-09-09T01:28:58;1.13;;;1.05;;
15643;SDS011;7921;43.586;1.408;2022-09-09T01:31:28;2.78;;;1.67;;
15643;SDS011;7921;43.586;1.408;2022-09-09T01:34:12;2.10;;;1.40;;
15643;SDS011;7921;43.586;1.408;2022-09-09T01:36:43;2.75;;;1.63;;
15643;SDS011;7921;43.586;1.408;2022-09-09T01:39:10;1.90;;;1.30;;
15643;SDS011;7921;43.586;1.408;2022-09-09T01:41:37;3.20;;;1.67;;
15643;SDS011;7921;43.586;1.408;2022-09-09T01:44:02;1.10;;;1.00;;
15643;SDS011;7921;43.586;1.408;2022-09-09T01:46:28;1.30;;;1.00;;
15643;SDS011;7921;43.586;1.408;2022-09-09T01:48:54;1.92;;;1.20;;
15643;SDS011;7921;43.586;1.408;2022-09-09T01:51:20;2.30;;;1.10;;
15643;SDS011;7921;43.586;1.408;2022-09-09T01:53:45;2.25;;;1.20;;
15643;SDS011;7921;43.586;1.408;2022-09-09T02:04:02;2.97;;;1.25;;
15643;SDS011;7921;43.586;1.408;2022-09-09T02:06:34;3.60;;;1.75;;
15643;SDS011;7921;43.586;1.408;2022-09-09T02:09:02;1.52;;;1.30;;
15643;SDS011;7921;43.586;1.408;2022-09-09T02:11:30;2.13;;;1.30;;
15643;SDS011;7921;43.586;1.408;2022-09-09T02:14:03;2.08;;;1.20;;
15643;SDS011;7921;43.586;1.408;2022-09-09T02:16:44;1.55;;;1.10;;
15643;SDS011;7921;43.586;1.408;2022-09-09T02:19:20;1.25;;;1.15;;
15643;SDS011;7921;43.586;1.408;2022-09-09T02:21:54;3.58;;;1.35;;
15643;SDS011;7921;43.586;1.408;2022-09-09T02:24:21;1.42;;;1.27;;
15643;SDS011;7921;43.586;1.408;2022-09-09T02:26:48;1.40;;;1.10;;
15643;SDS011;7921;43.586;1.408;2022-09-09T02:29:16;1.98;;;1.30;;
15643;SDS011;7921;43.586;1.408;2022-09-09T02:31:44;3.78;;;1.20;;
15643;SDS011;7921;43.586;1.408;2022-09-09T02:34:10;3.30;;;1.27;;
15643;SDS011;7921;43.586;1.408;2022-09-09T02:36:38;2.35;;;1.20;;
15643;SDS011;7921;43.586;1.408;2022-09-09T02:39:06;1.83;;;1.15;;
15643;SDS011;7921;43.586;1.408;2022-09-09T02:41:33;2.42;;;1.35;;
15643;SDS011;7921;43.586;1.408;2022-09-09T02:44:00;2.03;;;1.05;;
15643;SDS011;7921;43.586;1.408;2022-09-09T02:49:09;0.95;;;0.90;;
15643;SDS011;7921;43.586;1.408;2022-09-09T02:54:10;1.45;;;1.13;;
15643;SDS011;7921;43.586;1.408;2022-09-09T02:56:39;2.03;;;1.38;;
15643;SDS011;7921;43.586;1.408;2022-09-09T02:59:06;3.33;;;1.40;;
15643;SDS011;7921;43.586;1.408;2022-09-09T03:01:31;1.70;;;1.25;;
15643;SDS011;7921;43.586;1.408;2022-09-09T03:03:56;1.80;;;1.30;;
15643;SDS011;7921;43.586;1.408;2022-09-09T03:06:22;2.25;;;1.42;;
15643;SDS011;7921;43.586;1.408;2022-09-09T03:08:47;2.83;;;1.50;;
15643;SDS011;7921;43.586;1.408;2022-09-09T03:11:14;2.65;;;1.20;;
15643;SDS011;7921;43.586;1.408;2022-09-09T03:13:40;1.80;;;1.50;;
15643;SDS011;7921;43.586;1.408;2022-09-09T03:16:05;1.77;;;1.23;;
15643;SDS011;7921;43.586;1.408;2022-09-09T03:18:31;3.13;;;1.65;;
15643;SDS011;7921;43.586;1.408;2022-09-09T03:20:57;2.25;;;1.30;;
15643;SDS011;7921;43.586;1.408;2022-09-09T03:23:23;1.88;;;1.00;;
15643;SDS011;7921;43.586;1.408;2022-09-09T03:25:49;2.17;;;1.27;;
15643;SDS011;7921;43.586;1.408;2022-09-09T03:28:16;1.42;;;1.33;;
15643;SDS011;7921;43.586;1.408;2022-09-09T03:30:41;2.70;;;1.48;;
15643;SDS011;7921;43.586;1.408;2022-09-09T03:33:07;1.73;;;1.17;;
15643;SDS011;7921;43.586;1.408;2022-09-09T03:35:32;4.25;;;1.75;;
15643;SDS011;7921;43.586;1.408;2022-09-09T03:37:57;3.22;;;1.25;;
15643;SDS011;7921;43.586;1.408;2022-09-09T03:40:23;2.35;;;1.05;;
15643;SDS011;7921;43.586;1.408;2022-09-09T03:42:48;3.13;;;1.40;;
15643;SDS011;7921;43.586;1.408;2022-09-09T03:45:14;3.88;;;1.40;;
15643;SDS011;7921;43.586;1.408;2022-09-09T03:47:40;1.80;;;1.15;;
15643;SDS011;7921;43.586;1.408;2022-09-09T03:50:06;2.22;;;1.30;;
15643;SDS011;7921;43.586;1.408;2022-09-09T03:52:37;2.00;;;1.40;;
15643;SDS011;7921;43.586;1.408;2022-09-09T03:55:03;3.53;;;1.60;;
15643;SDS011;7921;43.586;1.408;2022-09-09T03:57:30;2.08;;;1.30;;
15643;SDS011;7921;43.586;1.408;2022-09-09T03:59:56;3.42;;;1.70;;
15643;SDS011;7921;43.586;1.408;2022-09-09T04:02:22;2.85;;;1.40;;
15643;SDS011;7921;43.586;1.408;2022-09-09T04:04:48;3.22;;;1.35;;
15643;SDS011;7921;43.586;1.408;2022-09-09T04:07:13;3.05;;;1.38;;
15643;SDS011;7921;43.586;1.408;2022-09-09T04:09:39;3.00;;;1.40;;
15643;SDS011;7921;43.586;1.408;2022-09-09T04:12:05;1.60;;;1.48;;
15643;SDS011;7921;43.586;1.408;2022-09-09T04:14:31;2.03;;;1.20;;
15643;SDS011;7921;43.586;1.408;2022-09-09T04:16:57;2.40;;;1.40;;
15643;SDS011;7921;43.586;1.408;2022-09-09T04:19:24;1.90;;;1.30;;
15643;SDS011;7921;43.586;1.408;2022-09-09T04:21:49;1.63;;;1.42;;
15643;SDS011;7921;43.586;1.408;2022-09-09T04:24:16;3.30;;;1.42;;
15643;SDS011;7921;43.586;1.408;2022-09-09T04:26:42;1.75;;;1.33;;
15643;SDS011;7921;43.586;1.408;2022-09-09T04:29:08;1.92;;;1.30;;
15643;SDS011;7921;43.586;1.408;2022-09-09T04:31:33;2.17;;;1.27;;
15643;SDS011;7921;43.586;1.408;2022-09-09T04:33:59;2.25;;;1.40;;
15643;SDS011;7921;43.586;1.408;2022-09-09T04:36:29;1.98;;;1.35;;
15643;SDS011;7921;43.586;1.408;2022-09-09T04:38:56;1.52;;;1.17;;
15643;SDS011;7921;43.586;1.408;2022-09-09T04:41:22;3.28;;;1.63;;
15643;SDS011;7921;43.586;1.408;2022-09-09T04:43:47;3.35;;;1.50;;
15643;SDS011;7921;43.586;1.408;2022-09-09T04:46:13;3.78;;;1.50;;
15643;SDS011;7921;43.586;1.408;2022-09-09T04:48:38;1.45;;;1.30;;
15643;SDS011;7921;43.586;1.408;2022-09-09T04:51:05;2.38;;;1.20;;
15643;SDS011;7921;43.586;1.408;2022-09-09T04:53:32;2.72;;;1.52;;
15643;SDS011;7921;43.586;1.408;2022-09-09T04:56:02;2.42;;;1.70;;
15643;SDS011;7921;43.586;1.408;2022-09-09T04:58:32;3.63;;;1.70;;
15643;SDS011;7921;43.586;1.408;2022-09-09T05:01:07;2.05;;;1.20;;
15643;SDS011;7921;43.586;1.408;2022-09-09T05:03:46;5.75;;;1.75;;
15643;SDS011;7921;43.586;1.408;2022-09-09T05:06:13;3.47;;;1.23;;
15643;SDS011;7921;43.586;1.408;2022-09-09T05:08:41;1.30;;;1.20;;
15643;SDS011;7921;43.586;1.408;2022-09-09T05:11:14;1.63;;;1.05;;
15643;SDS011;7921;43.586;1.408;2022-09-09T05:13:43;2.25;;;1.42;;
15643;SDS011;7921;43.586;1.408;2022-09-09T05:16:09;1.98;;;1.60;;
15643;SDS011;7921;43.586;1.408;2022-09-09T05:18:36;1.90;;;1.40;;
15643;SDS011;7921;43.586;1.408;2022-09-09T05:21:05;2.13;;;1.40;;
15643;SDS011;7921;43.586;1.408;2022-09-09T05:23:31;4.15;;;1.80;;
15643;SDS011;7921;43.586;1.408;2022-09-09T05:25:58;1.80;;;1.20;;
15643;SDS011;7921;43.586;1.408;2022-09-09T05:28:24;1.58;;;1.30;;
15643;SDS011;7921;43.586;1.408;2022-09-09T05:31:00;2.17;;;1.40;;
15643;SDS011;7921;43.586;1.408;2022-09-09T05:33:29;1.45;;;1.33;;
15643;SDS011;7921;43.586;1.408;2022-09-09T05:35:56;2.28;;;1.30;;
15643;SDS011;7921;43.586;1.408;2022-09-09T05:38:26;4.78;;;1.65;;
15643;SDS011;7921;43.586;1.408;2022-09-09T05:40:52;3.17;;;1.50;;
15643;SDS011;7921;43.586;1.408;2022-09-09T05:43:18;2.05;;;1.50;;
15643;SDS011;7921;43.586;1.408;2022-09-09T05:45:45;3.05;;;1.77;;
15643;SDS011;7921;43.586;1.408;2022-09-09T05:48:13;3.40;;;2.25;;
15643;SDS011;7921;43.586;1.408;2022-09-09T05:50:40;1.70;;;1.50;;
15643;SDS011;7921;43.586;1.408;2022-09-09T05:53:06;2.53;;;1.30;;
15643;SDS011;7921;43.586;1.408;2022-09-09T05:55:31;2.38;;;1.52;;
15643;SDS011;7921;43.586;1.408;2022-09-09T05:57:57;2.42;;;1.33;;
15643;SDS011;7921;43.586;1.408;2022-09-09T06:00:22;2.10;;;1.80;;
15643;SDS011;7921;43.586;1.408;2022-09-09T06:02:51;1.83;;;1.60;;
15643;SDS011;7921;43.586;1.408;2022-09-09T06:05:17;3.60;;;1.85;;
15643;SDS011;7921;43.586;1.408;2022-09-09T06:07:43;1.88;;;1.67;;
15643;SDS011;7921;43.586;1.408;2022-09-09T06:10:09;2.97;;;1.77;;
15643;SDS011;7921;43.586;1.408;2022-09-09T06:12:35;2.88;;;1.88;;
15643;SDS011;7921;43.586;1.408;2022-09-09T06:15:01;2.22;;;1.70;;
15643;SDS011;7921;43.586;1.408;2022-09-09T06:17:26;2.45;;;1.90;;
15643;SDS011;7921;43.586;1.408;2022-09-09T06:19:51;2.35;;;1.73;;
15643;SDS011;7921;43.586;1.408;2022-09-09T06:22:17;2.05;;;1.80;;
15643;SDS011;7921;43.586;1.408;2022-09-09T06:24:42;2.78;;;2.00;;
15643;SDS011;7921;43.586;1.408;2022-09-09T06:27:09;2.10;;;1.90;;
15643;SDS011;7921;43.586;1.408;2022-09-09T06:29:35;2.70;;;1.90;;
15643;SDS011;7921;43.586;1.408;2022-09-09T06:32:01;3.30;;;1.95;;
15643;SDS011;7921;43.586;1.408;2022-09-09T06:34:27;3.13;;;2.00;;
15643;SDS011;7921;43.586;1.408;2022-09-09T06:36:53;3.95;;;1.80;;
15643;SDS011;7921;43.586;1.408;2022-09-09T06:39:18;1.75;;;1.60;;
15643;SDS011;7921;43.586;1.408;2022-09-09T06:41:44;3.67;;;2.05;;
15643;SDS011;7921;43.586;1.408;2022-09-09T06:44:09;2.40;;;1.90;;
15643;SDS011;7921;43.586;1.408;2022-09-09T06:46:36;2.63;;;1.50;;
15643;SDS011;7921;43.586;1.408;2022-09-09T06:49:03;3.33;;;1.95;;
15643;SDS011;7921;43.586;1.408;2022-09-09T06:51:30;2.45;;;1.75;;
15643;SDS011;7921;43.586;1.408;2022-09-09T06:53:57;2.78;;;1.80;;
15643;SDS011;7921;43.586;1.408;2022-09-09T06:56:37;2.63;;;1.75;;
15643;SDS011;7921;43.586;1.408;2022-09-09T06:59:05;3.90;;;1.85;;
15643;SDS011;7921;43.586;1.408;2022-09-09T07:01:33;2.55;;;1.92;;
15643;SDS011;7921;43.586;1.408;2022-09-09T07:04:03;2.30;;;1.50;;
15643;SDS011;7921;43.586;1.408;2022-09-09T07:06:30;2.63;;;1.45;;
15643;SDS011;7921;43.586;1.408;2022-09-09T07:08:57;1.40;;;1.30;;
15643;SDS011;7921;43.586;1.408;2022-09-09T07:11:25;1.85;;;1.50;;
15643;SDS011;7921;43.586;1.408;2022-09-09T07:13:52;1.65;;;1.55;;
15643;SDS011;7921;43.586;1.408;2022-09-09T07:16:19;3.40;;;1.95;;
15643;SDS011;7921;43.586;1.408;2022-09-09T07:18:46;2.83;;;1.60;;
15643;SDS011;7921;43.586;1.408;2022-09-09T07:21:12;3.92;;;1.42;;
15643;SDS011;7921;43.586;1.408;2022-09-09T07:23:38;2.45;;;1.70;;
15643;SDS011;7921;43.586;1.408;2022-09-09T07:26:15;2.00;;;1.80;;
15643;SDS011;7921;43.586;1.408;2022-09-09T07:28:42;5.05;;;1.70;;
15643;SDS011;7921;43.586;1.408;2022-09-09T07:31:12;1.63;;;1.52;;
15643;SDS011;7921;43.586;1.408;2022-09-09T07:33:40;3.08;;;1.50;;
15643;SDS011;7921;43.586;1.408;2022-09-09T07:36:07;2.00;;;1.80;;
15643;SDS011;7921;43.586;1.408;2022-09-09T07:38:39;3.95;;;1.40;;
15643;SDS011;7921;43.586;1.408;2022-09-09T07:41:09;2.60;;;1.50;;
15643;SDS011;7921;43.586;1.408;2022-09-09T07:43:37;1.92;;;1.48;;
15643;SDS011;7921;43.586;1.408;2022-09-09T07:46:04;2.70;;;1.55;;
15643;SDS011;7921;43.586;1.408;2022-09-09T07:48:30;4.40;;;1.75;;
15643;SDS011;7921;43.586;1.408;2022-09-09T07:51:30;3.10;;;1.92;;
15643;SDS011;7921;43.586;1.408;2022-09-09T07:53:51;2.25;;;1.83;;
15643;SDS011;7921;43.586;1.408;2022-09-09T07:56:18;2.20;;;1.70;;
15643;SDS011;7921;43.586;1.408;2022-09-09T07:58:47;4.50;;;2.08;;
15643;SDS011;7921;43.586;1.408;2022-09-09T08:01:18;4.07;;;1.90;;
15643;SDS011;7921;43.586;1.408;2022-09-09T08:03:54;2.33;;;1.92;;
15643;SDS011;7921;43.586;1.408;2022-09-09T08:06:24;2.90;;;1.80;;
15643;SDS011;7921;43.586;1.408;2022-09-09T08:08:51;3.80;;;1.70;;
15643;SDS011;7921;43.586;1.408;2022-09-09T08:11:17;2.85;;;1.90;;
15643;SDS011;7921;43.586;1.408;2022-09-09T08:13:44;3.13;;;2.00;;
15643;SDS011;7921;43.586;1.408;2022-09-09T08:18:36;2.20;;;1.90;;
15643;SDS011;7921;43.586;1.408;2022-09-09T08:21:09;5.07;;;2.15;;
15643;SDS011;7921;43.586;1.408;2022-09-09T08:23:42;2.13;;;1.92;;
15643;SDS011;7921;43.586;1.408;2022-09-09T08:26:13;3.40;;;1.80;;
15643;SDS011;7921;43.586;1.408;2022-09-09T08:28:42;2.33;;;1.73;;
15643;SDS011;7921;43.586;1.408;2022-09-09T08:31:14;2.35;;;1.80;;
15643;SDS011;7921;43.586;1.408;2022-09-09T08:33:42;1.77;;;1.58;;
15643;SDS011;7921;43.586;1.408;2022-09-09T08:36:12;1.50;;;1.40;;
15643;SDS011;7921;43.586;1.408;2022-09-09T08:38:40;1.35;;;1.13;;
15643;SDS011;7921;43.586;1.408;2022-09-09T08:43:41;3.28;;;1.80;;
15643;SDS011;7921;43.586;1.408;2022-09-09T08:46:14;1.55;;;1.40;;
15643;SDS011;7921;43.586;1.408;2022-09-09T08:48:57;2.50;;;1.85;;
15643;SDS011;7921;43.586;1.408;2022-09-09T08:51:27;3.47;;;2.05;;
15643;SDS011;7921;43.586;1.408;2022-09-09T08:53:54;1.98;;;1.67;;
15643;SDS011;7921;43.586;1.408;2022-09-09T08:56:24;2.10;;;1.65;;
15643;SDS011;7921;43.586;1.408;2022-09-09T08:58:51;1.55;;;1.30;;
15643;SDS011;7921;43.586;1.408;2022-09-09T09:09:11;3.50;;;1.80;;
15643;SDS011;7921;43.586;1.408;2022-09-09T09:12:07;2.15;;;1.30;;
15643;SDS011;7921;43.586;1.408;2022-09-09T09:14:34;2.33;;;1.10;;
15643;SDS011;7921;43.586;1.408;2022-09-09T09:19:31;1.27;;;1.17;;
15643;SDS011;7921;43.586;1.408;2022-09-09T09:24:49;2.22;;;1.30;;
15643;SDS011;7921;43.586;1.408;2022-09-09T09:27:18;2.63;;;1.42;;
15643;SDS011;7921;43.586;1.408;2022-09-09T09:29:46;2.10;;;1.10;;
15643;SDS011;7921;43.586;1.408;2022-09-09T09:32:15;2.58;;;1.30;;
15643;SDS011;7921;43.586;1.408;2022-09-09T09:34:48;1.60;;;1.10;;
15643;SDS011;7921;43.586;1.408;2022-09-09T09:37:21;1.55;;;1.20;;
15643;SDS011;7921;43.586;1.408;2022-09-09T09:39:52;3.25;;;1.17;;
15643;SDS011;7921;43.586;1.408;2022-09-09T09:42:18;1.02;;;0.93;;
15643;SDS011;7921;43.586;1.408;2022-09-09T09:44:44;2.15;;;1.05;;
15643;SDS011;7921;43.586;1.408;2022-09-09T09:49:39;2.38;;;1.35;;
15643;SDS011;7921;43.586;1.408;2022-09-09T09:52:16;1.65;;;1.23;;
15643;SDS011;7921;43.586;1.408;2022-09-09T09:54:43;2.97;;;1.23;;
15643;SDS011;7921;43.586;1.408;2022-09-09T09:57:09;2.40;;;1.25;;
15643;SDS011;7921;43.586;1.408;2022-09-09T09:59:35;2.40;;;1.20;;
15643;SDS011;7921;43.586;1.408;2022-09-09T10:04:38;1.40;;;1.30;;
15643;SDS011;7921;43.586;1.408;2022-09-09T10:07:17;2.03;;;1.20;;
15643;SDS011;7921;43.586;1.408;2022-09-09T10:09:44;1.98;;;1.25;;
15643;SDS011;7921;43.586;1.408;2022-09-09T10:22:44;2.50;;;1.17;;
15643;SDS011;7921;43.586;1.408;2022-09-09T10:30:58;2.90;;;1.42;;
15643;SDS011;7921;43.586;1.408;2022-09-09T10:33:44;1.95;;;1.02;;
15643;SDS011;7921;43.586;1.408;2022-09-09T10:36:23;1.75;;;1.40;;
15643;SDS011;7921;43.586;1.408;2022-09-09T10:39:03;1.75;;;1.30;;
15643;SDS011;7921;43.586;1.408;2022-09-09T10:52:30;2.65;;;1.30;;
15643;SDS011;7921;43.586;1.408;2022-09-09T10:57:40;3.00;;;1.58;;
15643;SDS011;7921;43.586;1.408;2022-09-09T11:00:14;1.45;;;1.15;;
15643;SDS011;7921;43.586;1.408;2022-09-09T11:02:42;1.63;;;1.10;;
15643;SDS011;7921;43.586;1.408;2022-09-09T11:08:47;1.52;;;1.13;;
15643;SDS011;7921;43.586;1.408;2022-09-09T11:10:48;2.10;;;1.27;;
15643;SDS011;7921;43.586;1.408;2022-09-09T11:16:23;2.22;;;1.30;;
15643;SDS011;7921;43.586;1.408;2022-09-09T11:18:55;1.88;;;1.20;;
15643;SDS011;7921;43.586;1.408;2022-09-09T11:21:27;3.97;;;1.58;;
15643;SDS011;7921;43.586;1.408;2022-09-09T11:23:57;2.70;;;2.20;;
15643;SDS011;7921;43.586;1.408;2022-09-09T11:26:30;3.17;;;2.10;;
15643;SDS011;7921;43.586;1.408;2022-09-09T11:34:50;1.95;;;1.50;;
15643;SDS011;7921;43.586;1.408;2022-09-09T11:42:42;2.13;;;1.45;;
15643;SDS011;7921;43.586;1.408;2022-09-09T11:45:26;1.95;;;1.40;;
15643;SDS011;7921;43.586;1.408;2022-09-09T11:47:57;2.15;;;1.80;;
15643;SDS011;7921;43.586;1.408;2022-09-09T11:53:16;2.55;;;1.90;;
15643;SDS011;7921;43.586;1.408;2022-09-09T11:55:48;5.38;;;2.05;;
15643;SDS011;7921;43.586;1.408;2022-09-09T11:58:29;4.22;;;1.90;;
15643;SDS011;7921;43.586;1.408;2022-09-09T12:03:54;4.25;;;2.10;;
15643;SDS011;7921;43.586;1.408;2022-09-09T12:06:30;1.85;;;1.42;;
15643;SDS011;7921;43.586;1.408;2022-09-09T12:09:06;4.55;;;1.63;;
15643;SDS011;7921;43.586;1.408;2022-09-09T12:11:33;3.42;;;1.63;;
15643;SDS011;7921;43.586;1.408;2022-09-09T12:13:59;2.58;;;1.58;;
15643;SDS011;7921;43.586;1.408;2022-09-09T12:16:32;2.15;;;1.40;;
15643;SDS011;7921;43.586;1.408;2022-09-09T12:19:03;2.88;;;1.52;;
15643;SDS011;7921;43.586;1.408;2022-09-09T12:24:56;2.45;;;1.70;;
15643;SDS011;7921;43.586;1.408;2022-09-09T12:32:15;3.67;;;1.47;;
15643;SDS011;7921;43.586;1.408;2022-09-09T12:34:47;2.28;;;1.30;;
15643;SDS011;7921;43.586;1.408;2022-09-09T12:40:00;1.73;;;1.30;;
15643;SDS011;7921;43.586;1.408;2022-09-09T12:42:28;3.42;;;1.33;;
15643;SDS011;7921;43.586;1.408;2022-09-09T12:47:28;2.40;;;1.40;;
15643;SDS011;7921;43.586;1.408;2022-09-09T12:50:10;1.30;;;1.20;;
15643;SDS011;7921;43.586;1.408;2022-09-09T12:52:44;2.30;;;1.63;;
15643;SDS011;7921;43.586;1.408;2022-09-09T12:55:20;1.88;;;1.40;;
15643;SDS011;7921;43.586;1.408;2022-09-09T12:57:50;2.40;;;1.65;;
15643;SDS011;7921;43.586;1.408;2022-09-09T13:00:16;2.72;;;1.77;;
15643;SDS011;7921;43.586;1.408;2022-09-09T13:05:16;1.65;;;1.27;;
15643;SDS011;7921;43.586;1.408;2022-09-09T13:07:46;4.85;;;1.50;;
15643;SDS011;7921;43.586;1.408;2022-09-09T13:10:13;2.13;;;1.40;;
15643;SDS011;7921;43.586;1.408;2022-09-09T13:12:39;3.97;;;1.70;;
15643;SDS011;7921;43.586;1.408;2022-09-09T13:15:10;2.95;;;1.70;;
15643;SDS011;7921;43.586;1.408;2022-09-09T13:17:56;3.65;;;1.60;;
15643;SDS011;7921;43.586;1.408;2022-09-09T13:20:22;2.03;;;1.38;;
15643;SDS011;7921;43.586;1.408;2022-09-09T13:22:50;2.72;;;1.35;;
15643;SDS011;7921;43.586;1.408;2022-09-09T13:27:51;1.90;;;1.00;;
15643;SDS011;7921;43.586;1.408;2022-09-09T13:30:29;3.22;;;1.50;;
15643;SDS011;7921;43.586;1.408;2022-09-09T13:35:46;3.30;;;1.55;;
15643;SDS011;7921;43.586;1.408;2022-09-09T13:38:13;2.83;;;1.30;;
15643;SDS011;7921;43.586;1.408;2022-09-09T13:40:40;3.65;;;1.35;;
15643;SDS011;7921;43.586;1.408;2022-09-09T13:43:05;4.45;;;1.42;;
15643;SDS011;7921;43.586;1.408;2022-09-09T13:45:40;3.47;;;1.27;;
15643;SDS011;7921;43.586;1.408;2022-09-09T13:48:09;3.05;;;1.00;;
15643;SDS011;7921;43.586;1.408;2022-09-09T13:50:35;4.63;;;1.30;;
15643;SDS011;7921;43.586;1.408;2022-09-09T13:53:01;2.42;;;1.10;;
15643;SDS011;7921;43.586;1.408;2022-09-09T13:55:27;1.77;;;1.20;;
15643;SDS011;7921;43.586;1.408;2022-09-09T13:57:53;3.10;;;1.23;;
15643;SDS011;7921;43.586;1.408;2022-09-09T14:00:20;2.05;;;1.08;;
15643;SDS011;7921;43.586;1.408;2022-09-09T14:02:46;2.20;;;1.27;;
15643;SDS011;7921;43.586;1.408;2022-09-09T14:05:12;3.55;;;1.23;;
15643;SDS011;7921;43.586;1.408;2022-09-09T14:07:38;3.15;;;1.23;;
15643;SDS011;7921;43.586;1.408;2022-09-09T14:10:05;2.40;;;1.15;;
15643;SDS011;7921;43.586;1.408;2022-09-09T14:12:31;3.50;;;0.90;;
15643;SDS011;7921;43.586;1.408;2022-09-09T14:14:56;1.60;;;0.98;;
15643;SDS011;7921;43.586;1.408;2022-09-09T14:17:22;2.67;;;1.10;;
15643;SDS011;7921;43.586;1.408;2022-09-09T14:19:47;1.63;;;1.23;;
15643;SDS011;7921;43.586;1.408;2022-09-09T14:22:13;2.10;;;1.00;;
15643;SDS011;7921;43.586;1.408;2022-09-09T14:24:39;2.35;;;1.20;;
15643;SDS011;7921;43.586;1.408;2022-09-09T14:27:04;1.88;;;1.08;;
15643;SDS011;7921;43.586;1.408;2022-09-09T14:29:29;3.78;;;1.20;;
15643;SDS011;7921;43.586;1.408;2022-09-09T14:31:55;3.50;;;1.17;;
15643;SDS011;7921;43.586;1.408;2022-09-09T14:34:20;1.90;;;1.30;;
15643;SDS011;7921;43.586;1.408;2022-09-09T14:36:45;2.75;;;1.02;;
15643;SDS011;7921;43.586;1.408;2022-09-09T14:39:11;2.85;;;1.20;;
15643;SDS011;7921;43.586;1.408;2022-09-09T14:41:37;1.80;;;1.13;;
15643;SDS011;7921;43.586;1.408;2022-09-09T14:44:02;1.88;;;1.10;;
15643;SDS011;7921;43.586;1.408;2022-09-09T14:46:28;1.60;;;1.05;;
15643;SDS011;7921;43.586;1.408;2022-09-09T14:48:54;1.77;;;1.00;;
15643;SDS011;7921;43.586;1.408;2022-09-09T14:51:21;2.97;;;1.20;;
15643;SDS011;7921;43.586;1.408;2022-09-09T14:53:47;2.13;;;1.15;;
15643;SDS011;7921;43.586;1.408;2022-09-09T14:56:14;2.30;;;1.02;;
15643;SDS011;7921;43.586;1.408;2022-09-09T14:58:41;1.13;;;0.90;;
15643;SDS011;7921;43.586;1.408;2022-09-09T15:01:08;1.48;;;1.08;;
15643;SDS011;7921;43.586;1.408;2022-09-09T15:03:37;3.55;;;1.20;;
15643;SDS011;7921;43.586;1.408;2022-09-09T15:08:33;4.22;;;1.23;;
15643;SDS011;7921;43.586;1.408;2022-09-09T15:11:03;2.97;;;1.40;;
15643;SDS011;7921;43.586;1.408;2022-09-09T15:13:29;2.65;;;1.15;;
15643;SDS011;7921;43.586;1.408;2022-09-09T15:15:54;1.23;;;0.98;;
15643;SDS011;7921;43.586;1.408;2022-09-09T15:18:20;2.50;;;1.10;;
15643;SDS011;7921;43.586;1.408;2022-09-09T15:20:46;4.40;;;1.38;;
15643;SDS011;7921;43.586;1.408;2022-09-09T15:23:12;4.68;;;1.30;;
15643;SDS011;7921;43.586;1.408;2022-09-09T15:25:39;2.75;;;0.90;;
15643;SDS011;7921;43.586;1.408;2022-09-09T15:28:15;3.20;;;1.40;;
15643;SDS011;7921;43.586;1.408;2022-09-09T15:30:40;2.05;;;1.10;;
15643;SDS011;7921;43.586;1.408;2022-09-09T15:33:09;1.75;;;1.08;;
15643;SDS011;7921;43.586;1.408;2022-09-09T15:35:34;1.85;;;1.30;;
15643;SDS011;7921;43.586;1.408;2022-09-09T15:38:01;2.53;;;1.10;;
15643;SDS011;7921;43.586;1.408;2022-09-09T15:40:28;2.75;;;1.30;;
15643;SDS011;7921;43.586;1.408;2022-09-09T15:42:53;3.00;;;1.20;;
15643;SDS011;7921;43.586;1.408;2022-09-09T15:45:18;1.50;;;1.00;;
15643;SDS011;7921;43.586;1.408;2022-09-09T15:47:46;1.83;;;0.93;;
15643;SDS011;7921;43.586;1.408;2022-09-09T15:50:12;2.92;;;1.38;;
15643;SDS011;7921;43.586;1.408;2022-09-09T15:52:37;3.42;;;1.30;;
15643;SDS011;7921;43.586;1.408;2022-09-09T15:55:03;2.03;;;1.08;;
15643;SDS011;7921;43.586;1.408;2022-09-09T15:57:28;1.60;;;1.20;;
15643;SDS011;7921;43.586;1.408;2022-09-09T15:59:54;2.08;;;1.42;;
15643;SDS011;7921;43.586;1.408;2022-09-09T16:02:19;2.90;;;1.60;;
15643;SDS011;7921;43.586;1.408;2022-09-09T16:04:44;2.28;;;1.15;;
15643;SDS011;7921;43.586;1.408;2022-09-09T16:07:10;2.33;;;1.10;;
15643;SDS011;7921;43.586;1.408;2022-09-09T16:09:35;2.25;;;1.15;;
15643;SDS011;7921;43.586;1.408;2022-09-09T16:12:01;2.63;;;1.10;;
15643;SDS011;7921;43.586;1.408;2022-09-09T16:14:31;2.97;;;1.63;;
15643;SDS011;7921;43.586;1.408;2022-09-09T16:16:59;2.03;;;1.20;;
15643;SDS011;7921;43.586;1.408;2022-09-09T16:19:24;2.35;;;1.25;;
15643;SDS011;7921;43.586;1.408;2022-09-09T16:21:50;1.33;;;0.93;;
15643;SDS011;7921;43.586;1.408;2022-09-09T16:24:17;2.33;;;1.50;;
15643;SDS011;7921;43.586;1.408;2022-09-09T16:26:44;2.70;;;1.30;;
15643;SDS011;7921;43.586;1.408;2022-09-09T16:29:12;3.97;;;1.50;;
15643;SDS011;7921;43.586;1.408;2022-09-09T16:31:39;2.92;;;1.10;;
15643;SDS011;7921;43.586;1.408;2022-09-09T16:34:05;2.83;;;1.30;;
15643;SDS011;7921;43.586;1.408;2022-09-09T16:36:32;4.13;;;1.23;;
15643;SDS011;7921;43.586;1.408;2022-09-09T16:39:02;1.63;;;1.20;;
15643;SDS011;7921;43.586;1.408;2022-09-09T16:41:30;2.00;;;1.20;;
15643;SDS011;7921;43.586;1.408;2022-09-09T16:44:00;3.13;;;1.40;;
15643;SDS011;7921;43.586;1.408;2022-09-09T16:46:27;2.58;;;1.00;;
15643;SDS011;7921;43.586;1.408;2022-09-09T16:48:55;2.72;;;1.17;;
15643;SDS011;7921;43.586;1.408;2022-09-09T16:51:25;3.13;;;1.08;;
15643;SDS011;7921;43.586;1.408;2022-09-09T16:53:55;1.38;;;0.90;;
15643;SDS011;7921;43.586;1.408;2022-09-09T16:56:25;5.00;;;1.05;;
15643;SDS011;7921;43.586;1.408;2022-09-09T16:58:55;1.02;;;0.90;;
15643;SDS011;7921;43.586;1.408;2022-09-09T17:01:23;2.30;;;1.00;;
15643;SDS011;7921;43.586;1.408;2022-09-09T17:03:55;2.97;;;1.10;;
15643;SDS011;7921;43.586;1.408;2022-09-09T17:06:21;2.55;;;1.10;;
15643;SDS011;7921;43.586;1.408;2022-09-09T17:08:48;2.05;;;1.20;;
15643;SDS011;7921;43.586;1.408;2022-09-09T17:11:19;3.80;;;0.80;;
15643;SDS011;7921;43.586;1.408;2022-09-09T17:13:45;1.77;;;0.90;;
15643;SDS011;7921;43.586;1.408;2022-09-09T17:16:11;1.73;;;0.93;;
15643;SDS011;7921;43.586;1.408;2022-09-09T17:18:38;1.58;;;0.90;;
15643;SDS011;7921;43.586;1.408;2022-09-09T17:21:04;2.13;;;0.82;;
15643;SDS011;7921;43.586;1.408;2022-09-09T17:23:31;3.05;;;1.10;;
15643;SDS011;7921;43.586;1.408;2022-09-09T17:25:58;3.38;;;1.00;;
15643;SDS011;7921;43.586;1.408;2022-09-09T17:28:25;1.30;;;1.00;;
15643;SDS011;7921;43.586;1.408;2022-09-09T17:30:55;3.63;;;1.40;;
15643;SDS011;7921;43.586;1.408;2022-09-09T17:33:31;2.05;;;1.25;;
15643;SDS011;7921;43.586;1.408;2022-09-09T17:35:57;1.75;;;0.88;;